createdAt,value
2016-12-23T00:00:32.602Z,88
2016-12-23T00:01:38.619Z,88
2016-12-23T00:02:44.634Z,88
2016-12-23T00:03:50.651Z,88
2016-12-23T00:04:56.682Z,88
2016-12-23T00:06:02.701Z,88
2016-12-23T00:07:08.723Z,88
2016-12-23T00:08:14.746Z,88
2016-12-23T00:09:20.780Z,88
2016-12-23T00:10:26.804Z,88
2016-12-23T00:11:32.822Z,88
2016-12-23T00:12:38.844Z,88
2016-12-23T00:13:44.909Z,88
2016-12-23T00:14:50.949Z,88
2016-12-23T00:15:56.961Z,88
2016-12-23T00:17:02.982Z,88
2016-12-23T00:18:09.003Z,88
2016-12-23T00:19:15.030Z,88
2016-12-23T00:20:21.055Z,88
2016-12-23T00:21:27.070Z,88
2016-12-23T00:22:33.087Z,88
2016-12-23T00:23:39.118Z,88
2016-12-23T00:24:45.130Z,88
2016-12-23T00:25:51.148Z,88
2016-12-23T00:26:57.181Z,88
2016-12-23T00:28:03.230Z,88
2016-12-23T00:29:09.256Z,88
2016-12-23T00:30:15.286Z,88
2016-12-23T00:31:21.316Z,88
2016-12-23T00:32:27.410Z,88
2016-12-23T00:33:33.410Z,88
2016-12-23T00:34:39.443Z,88
2016-12-23T00:35:45.458Z,87
2016-12-23T00:36:51.470Z,87
2016-12-23T00:37:57.486Z,87
2016-12-23T00:39:03.518Z,87
2016-12-23T00:40:09.536Z,87
2016-12-23T00:41:15.555Z,87
2016-12-23T00:42:21.575Z,87
2016-12-23T00:43:27.592Z,86
2016-12-23T00:44:33.612Z,86
2016-12-23T00:45:39.641Z,86
2016-12-23T00:46:45.650Z,86
2016-12-23T00:47:51.675Z,86
2016-12-23T00:48:57.695Z,86
2016-12-23T00:50:03.723Z,86
2016-12-23T00:51:09.735Z,86
2016-12-23T00:52:15.770Z,86
2016-12-23T00:53:21.779Z,86
2016-12-23T00:54:27.810Z,86
2016-12-23T00:55:33.831Z,86
2016-12-23T00:56:39.853Z,85
2016-12-23T00:57:45.874Z,85
2016-12-23T00:58:51.889Z,85
2016-12-23T00:59:57.914Z,85
2016-12-23T01:01:03.934Z,85
2016-12-23T01:02:09.958Z,85
2016-12-23T01:03:15.980Z,85
2016-12-23T01:04:22.000Z,85
2016-12-23T01:05:28.019Z,85
2016-12-23T01:06:34.047Z,85
2016-12-23T01:07:40.070Z,85
2016-12-23T01:08:46.096Z,85
2016-12-23T01:09:52.112Z,85
2016-12-23T01:10:58.137Z,84
2016-12-23T01:12:04.158Z,84
2016-12-23T01:13:10.173Z,84
2016-12-23T01:14:16.193Z,84
2016-12-23T01:15:22.213Z,84
2016-12-23T01:16:28.239Z,84
2016-12-23T01:17:34.297Z,84
2016-12-23T01:18:40.318Z,84
2016-12-23T01:19:46.330Z,84
2016-12-23T01:20:52.350Z,83
2016-12-23T01:21:58.367Z,83
2016-12-23T01:23:04.393Z,83
2016-12-23T01:24:10.416Z,83
2016-12-23T01:25:16.438Z,83
2016-12-23T01:26:22.459Z,83
2016-12-23T01:27:28.490Z,83
2016-12-23T01:28:34.519Z,83
2016-12-23T01:29:40.535Z,83
2016-12-23T01:30:46.563Z,83
2016-12-23T01:31:52.642Z,83
2016-12-23T01:32:58.621Z,83
2016-12-23T01:34:04.640Z,83
2016-12-23T01:35:10.658Z,83
2016-12-23T01:36:16.680Z,83
2016-12-23T01:37:22.712Z,83
2016-12-23T01:38:28.732Z,83
2016-12-23T01:39:34.748Z,83
2016-12-23T01:40:40.783Z,83
2016-12-23T01:41:46.790Z,83
2016-12-23T01:42:52.813Z,83
2016-12-23T01:43:58.832Z,83
2016-12-23T01:45:04.850Z,83
2016-12-23T01:46:10.873Z,83
2016-12-23T01:47:16.890Z,83
2016-12-23T01:48:22.910Z,83
2016-12-23T01:49:28.930Z,83
2016-12-23T01:50:34.949Z,83
2016-12-23T01:51:40.971Z,83
2016-12-23T01:52:46.998Z,83
2016-12-23T01:53:53.025Z,83
2016-12-23T01:54:59.043Z,83
2016-12-23T01:56:05.064Z,83
2016-12-23T01:57:11.084Z,83
2016-12-23T01:58:17.119Z,83
2016-12-23T01:59:23.138Z,83
2016-12-23T02:00:29.162Z,82
2016-12-23T02:01:35.192Z,82
2016-12-23T02:02:41.203Z,82
2016-12-23T02:03:47.233Z,82
2016-12-23T02:04:53.248Z,82
2016-12-23T02:05:59.265Z,82
2016-12-23T02:07:05.283Z,82
2016-12-23T02:08:11.312Z,82
2016-12-23T02:09:17.332Z,82
2016-12-23T02:10:23.348Z,82
2016-12-23T02:11:29.374Z,82
2016-12-23T02:12:35.415Z,82
2016-12-23T02:13:41.451Z,82
2016-12-23T02:14:47.469Z,82
2016-12-23T02:15:53.486Z,82
2016-12-23T02:16:59.513Z,82
2016-12-23T02:18:05.558Z,82
2016-12-23T02:19:11.572Z,82
2016-12-23T02:20:17.586Z,82
2016-12-23T02:21:23.620Z,82
2016-12-23T02:22:29.629Z,82
2016-12-23T02:23:35.649Z,82
2016-12-23T02:24:41.665Z,82
2016-12-23T02:25:47.690Z,82
2016-12-23T02:26:53.713Z,82
2016-12-23T02:27:59.734Z,82
2016-12-23T02:29:05.771Z,82
2016-12-23T02:30:11.789Z,82
2016-12-23T02:31:17.809Z,82
2016-12-23T02:32:23.824Z,82
2016-12-23T02:33:29.836Z,82
2016-12-23T02:34:35.855Z,82
2016-12-23T02:35:41.873Z,82
2016-12-23T02:36:47.891Z,82
2016-12-23T02:37:53.914Z,82
2016-12-23T02:38:59.960Z,82
2016-12-23T02:40:05.970Z,82
2016-12-23T02:41:11.981Z,82
2016-12-23T02:42:18.008Z,82
2016-12-23T02:43:24.029Z,82
2016-12-23T02:44:30.047Z,82
2016-12-23T02:45:36.067Z,82
2016-12-23T02:46:42.094Z,82
2016-12-23T02:47:48.152Z,82
2016-12-23T02:48:54.217Z,82
2016-12-23T02:50:00.243Z,82
2016-12-23T02:51:06.265Z,82
2016-12-23T02:52:12.279Z,82
2016-12-23T02:53:18.304Z,82
2016-12-23T02:54:24.330Z,82
2016-12-23T02:55:30.353Z,82
2016-12-23T02:56:36.369Z,81
2016-12-23T02:57:42.388Z,81
2016-12-23T02:58:48.407Z,81
2016-12-23T02:59:54.427Z,81
2016-12-23T03:01:00.443Z,81
2016-12-23T03:02:06.458Z,81
2016-12-23T03:03:12.489Z,81
2016-12-23T03:04:18.511Z,81
2016-12-23T03:05:24.534Z,81
2016-12-23T03:06:30.553Z,81
2016-12-23T03:07:36.583Z,81
2016-12-23T03:08:42.605Z,81
2016-12-23T03:09:48.673Z,81
2016-12-23T03:10:54.687Z,81
2016-12-23T03:12:00.786Z,81
2016-12-23T03:13:06.791Z,81
2016-12-23T03:14:12.782Z,81
2016-12-23T03:15:18.810Z,81
2016-12-23T03:16:24.847Z,81
2016-12-23T03:17:30.849Z,81
2016-12-23T03:18:36.859Z,82
2016-12-23T03:19:42.881Z,81
2016-12-23T03:20:48.893Z,81
2016-12-23T03:21:54.912Z,82
2016-12-23T03:23:00.934Z,82
2016-12-23T03:24:06.959Z,82
2016-12-23T03:25:12.987Z,82
2016-12-23T03:26:18.986Z,81
2016-12-23T03:27:25.016Z,81
2016-12-23T03:28:31.040Z,81
2016-12-23T03:29:37.059Z,81
2016-12-23T03:30:43.071Z,82
2016-12-23T03:31:49.098Z,82
2016-12-23T03:32:55.116Z,82
2016-12-23T03:34:01.135Z,82
2016-12-23T03:35:07.152Z,82
2016-12-23T03:36:13.188Z,81
2016-12-23T03:37:19.211Z,81
2016-12-23T03:38:25.229Z,81
2016-12-23T03:39:31.240Z,81
2016-12-23T03:40:37.346Z,81
2016-12-23T03:41:43.354Z,81
2016-12-23T03:42:49.375Z,81
2016-12-23T03:43:55.401Z,81
2016-12-23T03:45:01.411Z,81
2016-12-23T03:46:07.427Z,81
2016-12-23T03:47:13.443Z,81
2016-12-23T03:48:19.466Z,81
2016-12-23T03:49:25.492Z,81
2016-12-23T03:50:31.512Z,81
2016-12-23T03:51:37.531Z,81
2016-12-23T03:52:43.553Z,81
2016-12-23T03:53:49.575Z,81
2016-12-23T03:54:55.595Z,81
2016-12-23T03:56:01.612Z,81
2016-12-23T03:57:07.642Z,81
2016-12-23T03:58:13.665Z,81
2016-12-23T03:59:19.680Z,81
2016-12-23T04:00:25.696Z,81
2016-12-23T04:01:31.710Z,81
2016-12-23T04:02:37.727Z,81
2016-12-23T04:03:43.742Z,81
2016-12-23T04:04:49.759Z,81
2016-12-23T04:05:55.787Z,81
2016-12-23T04:07:01.830Z,81
2016-12-23T04:08:07.855Z,81
2016-12-23T04:09:13.888Z,81
2016-12-23T04:10:19.910Z,81
2016-12-23T04:11:25.928Z,81
2016-12-23T04:12:31.947Z,80
2016-12-23T04:13:37.971Z,80
2016-12-23T04:14:43.993Z,80
2016-12-23T04:15:50.016Z,80
2016-12-23T04:16:56.035Z,80
2016-12-23T04:18:02.057Z,80
2016-12-23T04:19:08.074Z,81
2016-12-23T04:20:14.088Z,81
2016-12-23T04:21:20.104Z,80
2016-12-23T04:22:26.130Z,80
2016-12-23T04:23:32.155Z,80
2016-12-23T04:24:38.169Z,80
2016-12-23T04:25:44.193Z,80
2016-12-23T04:26:50.208Z,80
2016-12-23T04:27:56.231Z,80
2016-12-23T04:29:02.256Z,80
2016-12-23T04:30:08.277Z,80
2016-12-23T04:31:14.301Z,80
2016-12-23T04:32:20.367Z,80
2016-12-23T04:33:26.383Z,80
2016-12-23T04:34:32.404Z,80
2016-12-23T04:35:38.432Z,80
2016-12-23T04:36:44.481Z,80
2016-12-23T04:37:50.492Z,80
2016-12-23T04:38:56.504Z,80
2016-12-23T04:40:02.539Z,80
2016-12-23T04:41:08.555Z,80
2016-12-23T04:42:14.574Z,80
2016-12-23T04:43:20.598Z,80
2016-12-23T04:44:26.624Z,80
2016-12-23T04:45:32.640Z,80
2016-12-23T04:46:38.659Z,80
2016-12-23T04:47:44.677Z,80
2016-12-23T04:48:50.689Z,80
2016-12-23T04:49:56.707Z,80
2016-12-23T04:51:02.730Z,80
2016-12-23T04:52:08.759Z,80
2016-12-23T04:53:14.777Z,80
2016-12-23T04:54:20.799Z,80
2016-12-23T04:55:26.818Z,80
2016-12-23T04:56:32.848Z,80
2016-12-23T04:57:38.865Z,80
2016-12-23T04:58:44.880Z,80
2016-12-23T04:59:50.915Z,80
2016-12-23T05:00:56.930Z,80
2016-12-23T05:02:02.947Z,80
2016-12-23T05:03:08.964Z,80
2016-12-23T05:04:14.989Z,80
2016-12-23T05:05:21.012Z,80
2016-12-23T05:06:27.034Z,80
2016-12-23T05:07:33.049Z,80
2016-12-23T05:08:39.075Z,80
2016-12-23T05:09:45.100Z,80
2016-12-23T05:10:51.122Z,80
2016-12-23T05:11:57.152Z,80
2016-12-23T05:13:03.168Z,80
2016-12-23T05:14:09.187Z,80
2016-12-23T05:15:15.204Z,80
2016-12-23T05:16:21.233Z,80
2016-12-23T05:17:27.245Z,80
2016-12-23T05:18:33.272Z,80
2016-12-23T05:19:39.293Z,80
2016-12-23T05:20:45.317Z,80
2016-12-23T05:21:51.338Z,80
2016-12-23T05:22:57.348Z,80
2016-12-23T05:24:03.366Z,80
2016-12-23T05:25:09.396Z,80
2016-12-23T05:26:15.416Z,80
2016-12-23T05:27:21.440Z,80
2016-12-23T05:28:27.460Z,80
2016-12-23T05:29:33.473Z,80
2016-12-23T05:30:39.503Z,80
2016-12-23T05:31:45.521Z,80
2016-12-23T05:32:51.546Z,80
2016-12-23T05:33:57.566Z,80
2016-12-23T05:35:03.583Z,80
2016-12-23T05:36:09.610Z,80
2016-12-23T05:37:15.633Z,80
2016-12-23T05:38:20.914Z,80
2016-12-23T05:39:26.931Z,80
2016-12-23T05:40:32.956Z,80
2016-12-23T05:41:38.981Z,80
2016-12-23T05:42:44.995Z,80
2016-12-23T05:43:51.013Z,80
2016-12-23T05:44:57.035Z,80
2016-12-23T05:46:03.063Z,80
2016-12-23T05:47:09.087Z,80
2016-12-23T05:48:15.107Z,80
2016-12-23T05:49:21.127Z,80
2016-12-23T05:50:27.150Z,80
2016-12-23T05:51:33.174Z,80
2016-12-23T05:52:39.202Z,80
2016-12-23T05:53:45.211Z,80
2016-12-23T05:54:51.230Z,80
2016-12-23T05:55:57.248Z,80
2016-12-23T05:57:03.268Z,80
2016-12-23T05:58:09.289Z,80
2016-12-23T05:59:15.308Z,80
2016-12-23T06:00:21.329Z,80
2016-12-23T06:01:27.340Z,80
2016-12-23T06:02:33.362Z,80
2016-12-23T06:03:39.395Z,80
2016-12-23T06:04:45.396Z,80
2016-12-23T06:05:51.423Z,80
2016-12-23T06:06:57.448Z,80
2016-12-23T06:08:03.462Z,80
2016-12-23T06:09:09.476Z,80
2016-12-23T06:10:15.493Z,80
2016-12-23T06:11:21.519Z,80
2016-12-23T06:12:27.542Z,80
2016-12-23T06:13:33.560Z,80
2016-12-23T06:14:39.573Z,80
2016-12-23T06:15:45.602Z,80
2016-12-23T06:16:51.628Z,80
2016-12-23T06:17:57.641Z,80
2016-12-23T06:19:03.681Z,80
2016-12-23T06:20:09.679Z,80
2016-12-23T06:21:15.692Z,80
2016-12-23T06:22:21.710Z,80
2016-12-23T06:23:27.733Z,80
2016-12-23T06:24:33.763Z,80
2016-12-23T06:25:39.777Z,80
2016-12-23T06:26:45.803Z,80
2016-12-23T06:27:51.834Z,80
2016-12-23T06:28:57.845Z,80
2016-12-23T06:30:03.864Z,80
2016-12-23T06:31:09.883Z,79
2016-12-23T06:32:15.903Z,79
2016-12-23T06:33:21.921Z,79
2016-12-23T06:34:27.939Z,79
2016-12-23T06:35:33.966Z,79
2016-12-23T06:36:39.987Z,79
2016-12-23T06:37:46.006Z,79
2016-12-23T06:38:52.023Z,79
2016-12-23T06:39:58.056Z,79
2016-12-23T06:41:02.962Z,79
2016-12-23T06:42:08.980Z,79
2016-12-23T06:43:14.998Z,79
2016-12-23T06:44:21.022Z,79
2016-12-23T06:45:27.036Z,79
2016-12-23T06:46:33.056Z,79
2016-12-23T06:47:39.082Z,79
2016-12-23T06:48:45.110Z,79
2016-12-23T06:49:51.128Z,79
2016-12-23T06:50:57.147Z,79
2016-12-23T06:52:03.168Z,79
2016-12-23T06:53:09.189Z,79
2016-12-23T06:54:15.205Z,79
2016-12-23T06:55:21.232Z,79
2016-12-23T06:56:27.256Z,79
2016-12-23T06:57:33.275Z,79
2016-12-23T06:58:39.298Z,79
2016-12-23T06:59:45.317Z,79
2016-12-23T07:00:51.336Z,79
2016-12-23T07:01:57.361Z,79
2016-12-23T07:03:03.381Z,79
2016-12-23T07:04:09.403Z,79
2016-12-23T07:05:15.434Z,79
2016-12-23T07:06:21.447Z,79
2016-12-23T07:07:27.466Z,79
2016-12-23T07:08:33.491Z,79
2016-12-23T07:09:39.512Z,79
2016-12-23T07:10:45.528Z,79
2016-12-23T07:11:51.548Z,79
2016-12-23T07:12:57.574Z,79
2016-12-23T07:14:03.597Z,79
2016-12-23T07:15:09.613Z,79
2016-12-23T07:16:15.635Z,79
2016-12-23T07:17:21.657Z,79
2016-12-23T07:18:27.681Z,79
2016-12-23T07:19:33.695Z,79
2016-12-23T07:20:39.719Z,79
2016-12-23T07:21:45.733Z,79
2016-12-23T07:22:51.760Z,79
2016-12-23T07:23:57.036Z,78
2016-12-23T07:25:03.058Z,78
2016-12-23T07:26:09.081Z,78
2016-12-23T07:27:15.099Z,78
2016-12-23T07:28:21.118Z,78
2016-12-23T07:29:27.142Z,78
2016-12-23T07:30:33.161Z,78
2016-12-23T07:31:39.178Z,78
2016-12-23T07:32:45.198Z,78
2016-12-23T07:33:51.221Z,78
2016-12-23T07:34:57.245Z,78
2016-12-23T07:36:03.261Z,78
2016-12-23T07:37:09.286Z,78
2016-12-23T07:38:15.307Z,78
2016-12-23T07:39:21.325Z,78
2016-12-23T07:40:27.339Z,78
2016-12-23T07:41:33.366Z,78
2016-12-23T07:42:39.388Z,78
2016-12-23T07:43:45.414Z,78
2016-12-23T07:44:51.436Z,78
2016-12-23T07:45:57.456Z,78
2016-12-23T07:47:03.483Z,78
2016-12-23T07:48:09.503Z,78
2016-12-23T07:49:15.520Z,78
2016-12-23T07:50:21.546Z,78
2016-12-23T07:51:27.571Z,78
2016-12-23T07:52:33.593Z,78
2016-12-23T07:53:39.612Z,78
2016-12-23T07:54:45.633Z,78
2016-12-23T07:55:51.656Z,78
2016-12-23T07:56:57.668Z,78
2016-12-23T07:58:03.687Z,78
2016-12-23T07:59:09.709Z,78
2016-12-23T08:00:15.732Z,78
2016-12-23T08:01:21.746Z,78
2016-12-23T08:02:27.779Z,78
2016-12-23T08:03:33.800Z,78
2016-12-23T08:04:39.825Z,78
2016-12-23T08:05:45.839Z,78
2016-12-23T08:06:51.861Z,78
2016-12-23T08:07:57.881Z,78
2016-12-23T08:09:03.903Z,78
2016-12-23T08:10:09.941Z,78
2016-12-23T08:11:15.956Z,78
2016-12-23T08:12:21.981Z,78
2016-12-23T08:13:28.000Z,78
2016-12-23T08:14:34.016Z,78
2016-12-23T08:15:40.031Z,78
2016-12-23T08:16:46.051Z,78
2016-12-23T08:17:52.074Z,78
2016-12-23T08:18:58.097Z,78
2016-12-23T08:20:04.119Z,78
2016-12-23T08:21:10.134Z,78
2016-12-23T08:22:16.151Z,78
2016-12-23T08:23:22.171Z,78
2016-12-23T08:24:28.188Z,78
2016-12-23T08:25:34.209Z,78
2016-12-23T08:26:40.226Z,78
2016-12-23T08:27:46.248Z,78
2016-12-23T08:28:52.265Z,78
2016-12-23T08:29:58.286Z,78
2016-12-23T08:31:04.318Z,78
2016-12-23T08:32:10.339Z,78
2016-12-23T08:33:16.352Z,78
2016-12-23T08:34:22.360Z,78
2016-12-23T08:35:28.388Z,78
2016-12-23T08:36:34.408Z,78
2016-12-23T08:37:40.427Z,78
2016-12-23T08:38:46.450Z,78
2016-12-23T08:39:52.481Z,78
2016-12-23T08:40:58.499Z,78
2016-12-23T08:42:04.517Z,78
2016-12-23T08:43:10.545Z,78
2016-12-23T08:44:16.561Z,78
2016-12-23T08:45:22.596Z,78
2016-12-23T08:46:28.607Z,78
2016-12-23T08:47:34.636Z,78
2016-12-23T08:48:40.649Z,78
2016-12-23T08:49:46.690Z,78
2016-12-23T08:50:52.705Z,78
2016-12-23T08:51:58.731Z,78
2016-12-23T08:53:04.744Z,78
2016-12-23T08:54:10.761Z,78
2016-12-23T08:55:16.795Z,78
2016-12-23T08:56:22.814Z,78
2016-12-23T08:57:28.838Z,78
2016-12-23T08:58:34.852Z,78
2016-12-23T08:59:40.880Z,78
2016-12-23T09:00:46.898Z,78
2016-12-23T09:01:52.919Z,78
2016-12-23T09:02:58.936Z,78
2016-12-23T09:04:04.967Z,78
2016-12-23T09:05:10.983Z,78
2016-12-23T09:06:17.005Z,78
2016-12-23T09:07:23.041Z,78
2016-12-23T09:08:29.054Z,78
2016-12-23T09:09:35.083Z,78
2016-12-23T09:10:41.110Z,78
2016-12-23T09:11:47.141Z,78
2016-12-23T09:12:53.155Z,78
2016-12-23T09:13:59.182Z,78
2016-12-23T09:15:05.201Z,78
2016-12-23T09:16:11.239Z,78
2016-12-23T09:17:17.267Z,78
2016-12-23T09:18:23.284Z,78
2016-12-23T09:19:29.299Z,78
2016-12-23T09:20:35.321Z,78
2016-12-23T09:21:41.349Z,78
2016-12-23T09:22:47.364Z,78
2016-12-23T09:23:53.384Z,78
2016-12-23T09:24:59.442Z,78
2016-12-23T09:26:05.474Z,78
2016-12-23T09:27:11.494Z,78
2016-12-23T09:28:17.512Z,78
2016-12-23T09:29:23.537Z,78
2016-12-23T09:30:29.558Z,78
2016-12-23T09:31:35.618Z,78
2016-12-23T09:32:41.598Z,78
2016-12-23T09:33:47.615Z,78
2016-12-23T09:34:53.636Z,78
2016-12-23T09:35:59.676Z,78
2016-12-23T09:37:05.689Z,78
2016-12-23T09:38:11.706Z,78
2016-12-23T09:39:17.733Z,78
2016-12-23T09:40:23.753Z,78
2016-12-23T09:41:29.775Z,78
2016-12-23T09:42:35.796Z,78
2016-12-23T09:43:41.812Z,78
2016-12-23T09:44:47.829Z,78
2016-12-23T09:45:53.854Z,78
2016-12-23T09:46:59.871Z,78
2016-12-23T09:48:05.891Z,77
2016-12-23T09:49:11.922Z,77
2016-12-23T09:50:17.944Z,77
2016-12-23T09:51:23.961Z,77
2016-12-23T09:52:29.979Z,77
2016-12-23T09:53:36.002Z,77
2016-12-23T09:54:42.027Z,77
2016-12-23T09:55:48.051Z,77
2016-12-23T09:56:54.071Z,77
2016-12-23T09:58:00.084Z,77
2016-12-23T09:59:06.135Z,77
2016-12-23T10:00:12.156Z,77
2016-12-23T10:01:18.166Z,77
2016-12-23T10:02:24.187Z,77
2016-12-23T10:03:30.211Z,77
2016-12-23T10:04:36.229Z,77
2016-12-23T10:05:42.248Z,77
2016-12-23T10:06:48.273Z,77
2016-12-23T10:07:54.313Z,77
2016-12-23T10:09:00.322Z,77
2016-12-23T10:10:06.342Z,77
2016-12-23T10:11:12.373Z,77
2016-12-23T10:12:18.389Z,77
2016-12-23T10:13:24.408Z,77
2016-12-23T10:14:30.426Z,77
2016-12-23T10:15:36.459Z,77
2016-12-23T10:16:42.473Z,77
2016-12-23T10:17:48.497Z,77
2016-12-23T10:18:54.513Z,77
2016-12-23T10:20:00.541Z,77
2016-12-23T10:21:06.554Z,77
2016-12-23T10:22:12.577Z,77
2016-12-23T10:23:18.593Z,77
2016-12-23T10:24:24.619Z,76
2016-12-23T10:25:30.632Z,76
2016-12-23T10:26:36.656Z,76
2016-12-23T10:27:42.686Z,76
2016-12-23T10:28:48.701Z,76
2016-12-23T10:29:54.715Z,76
2016-12-23T10:31:00.729Z,76
2016-12-23T10:32:06.759Z,76
2016-12-23T10:33:12.786Z,76
2016-12-23T10:34:18.798Z,76
2016-12-23T10:35:24.827Z,76
2016-12-23T10:36:30.849Z,76
2016-12-23T10:37:36.872Z,76
2016-12-23T10:38:42.887Z,76
2016-12-23T10:39:48.911Z,76
2016-12-23T10:40:54.931Z,76
2016-12-23T10:42:00.956Z,76
2016-12-23T10:43:06.969Z,76
2016-12-23T10:44:13.000Z,76
2016-12-23T10:45:19.011Z,76
2016-12-23T10:46:25.031Z,76
2016-12-23T10:47:31.053Z,76
2016-12-23T10:48:37.073Z,76
2016-12-23T10:49:43.087Z,76
2016-12-23T10:50:49.105Z,76
2016-12-23T10:51:55.126Z,76
2016-12-23T10:53:01.148Z,76
2016-12-23T10:54:07.185Z,76
2016-12-23T10:55:13.200Z,76
2016-12-23T10:56:19.219Z,76
2016-12-23T10:57:25.243Z,76
2016-12-23T10:58:31.263Z,76
2016-12-23T10:59:37.286Z,76
2016-12-23T11:00:43.302Z,76
2016-12-23T11:01:49.328Z,76
2016-12-23T11:02:55.347Z,76
2016-12-23T11:04:01.364Z,76
2016-12-23T11:05:07.385Z,76
2016-12-23T11:06:13.416Z,76
2016-12-23T11:07:19.436Z,76
2016-12-23T11:08:25.459Z,76
2016-12-23T11:09:31.478Z,76
2016-12-23T11:10:37.503Z,76
2016-12-23T11:11:43.522Z,76
2016-12-23T11:12:49.545Z,76
2016-12-23T11:13:55.567Z,76
2016-12-23T11:15:01.587Z,76
2016-12-23T11:16:07.611Z,76
2016-12-23T11:17:13.635Z,76
2016-12-23T11:18:19.655Z,76
2016-12-23T11:19:25.682Z,76
2016-12-23T11:20:31.699Z,76
2016-12-23T11:21:37.726Z,76
2016-12-23T11:22:43.743Z,76
2016-12-23T11:23:49.762Z,76
2016-12-23T11:24:55.782Z,76
2016-12-23T11:26:01.807Z,76
2016-12-23T11:27:07.826Z,76
2016-12-23T11:28:13.852Z,76
2016-12-23T11:29:19.874Z,76
2016-12-23T11:30:25.898Z,76
2016-12-23T11:31:31.916Z,76
2016-12-23T11:32:37.947Z,76
2016-12-23T11:33:43.972Z,76
2016-12-23T11:34:49.980Z,76
2016-12-23T11:35:55.997Z,76
2016-12-23T11:37:02.020Z,76
2016-12-23T11:38:08.040Z,76
2016-12-23T11:39:14.059Z,76
2016-12-23T11:40:20.072Z,76
2016-12-23T11:41:26.089Z,76
2016-12-23T11:42:32.116Z,76
2016-12-23T11:43:38.133Z,76
2016-12-23T11:44:44.154Z,76
2016-12-23T11:45:49.427Z,76
2016-12-23T11:46:55.448Z,76
2016-12-23T11:48:01.477Z,76
2016-12-23T11:49:07.497Z,76
2016-12-23T11:50:13.523Z,76
2016-12-23T11:51:19.544Z,75
2016-12-23T11:52:25.566Z,75
2016-12-23T11:53:31.582Z,75
2016-12-23T11:54:37.604Z,75
2016-12-23T11:55:43.627Z,75
2016-12-23T11:56:49.642Z,75
2016-12-23T11:57:55.670Z,75
2016-12-23T11:59:01.697Z,75
2016-12-23T12:00:07.718Z,75
2016-12-23T12:01:13.737Z,75
2016-12-23T12:02:19.758Z,75
2016-12-23T12:03:25.782Z,75
2016-12-23T12:04:31.798Z,75
2016-12-23T12:05:37.818Z,75
2016-12-23T12:06:43.840Z,75
2016-12-23T12:07:49.866Z,75
2016-12-23T12:08:55.884Z,75
2016-12-23T12:10:01.900Z,75
2016-12-23T12:11:07.921Z,75
2016-12-23T12:12:13.945Z,75
2016-12-23T12:13:19.958Z,75
2016-12-23T12:14:25.977Z,75
2016-12-23T12:15:31.999Z,75
2016-12-23T12:16:38.031Z,75
2016-12-23T12:17:44.041Z,74
2016-12-23T12:18:50.064Z,74
2016-12-23T12:19:56.089Z,74
2016-12-23T12:21:02.093Z,74
2016-12-23T12:22:08.110Z,74
2016-12-23T12:23:14.131Z,73
2016-12-23T12:24:20.154Z,73
2016-12-23T12:25:26.174Z,73
2016-12-23T12:26:32.193Z,74
2016-12-23T12:27:38.218Z,73
2016-12-23T12:28:44.237Z,73
2016-12-23T12:29:50.259Z,73
2016-12-23T12:30:56.278Z,73
2016-12-23T12:32:02.302Z,73
2016-12-23T12:33:08.321Z,73
2016-12-23T12:34:14.343Z,73
2016-12-23T12:35:20.371Z,73
2016-12-23T12:36:26.394Z,73
2016-12-23T12:37:32.419Z,73
2016-12-23T12:38:38.435Z,73
2016-12-23T12:39:44.449Z,73
2016-12-23T12:40:50.475Z,73
2016-12-23T12:41:56.497Z,73
2016-12-23T12:43:02.516Z,73
2016-12-23T12:44:08.540Z,73
2016-12-23T12:45:14.567Z,73
2016-12-23T12:46:20.584Z,73
2016-12-23T12:47:26.605Z,73
2016-12-23T12:48:32.625Z,73
2016-12-23T12:49:38.649Z,73
2016-12-23T12:50:44.671Z,73
2016-12-23T12:51:50.688Z,73
2016-12-23T12:52:56.712Z,73
2016-12-23T12:54:02.735Z,73
2016-12-23T12:55:08.753Z,73
2016-12-23T12:56:14.770Z,73
2016-12-23T12:57:20.793Z,73
2016-12-23T12:58:26.817Z,73
2016-12-23T12:59:32.845Z,73
2016-12-23T13:00:38.867Z,73
2016-12-23T13:01:44.889Z,73
2016-12-23T13:02:50.904Z,73
2016-12-23T13:03:56.923Z,73
2016-12-23T13:05:02.949Z,73
2016-12-23T13:06:08.972Z,73
2016-12-23T13:07:14.992Z,73
2016-12-23T13:08:21.017Z,73
2016-12-23T13:09:27.040Z,73
2016-12-23T13:10:33.063Z,73
2016-12-23T13:11:39.084Z,73
2016-12-23T13:12:45.113Z,73
2016-12-23T13:13:51.129Z,73
2016-12-23T13:14:57.147Z,73
2016-12-23T13:16:03.181Z,73
2016-12-23T13:17:09.189Z,73
2016-12-23T13:18:15.203Z,73
2016-12-23T13:19:21.227Z,73
2016-12-23T13:20:27.251Z,73
2016-12-23T13:21:33.273Z,73
2016-12-23T13:22:39.288Z,73
2016-12-23T13:23:45.306Z,73
2016-12-23T13:24:51.318Z,73
2016-12-23T13:25:57.349Z,73
2016-12-23T13:27:03.378Z,73
2016-12-23T13:28:09.402Z,73
2016-12-23T13:29:15.422Z,73
2016-12-23T13:30:21.444Z,73
2016-12-23T13:31:27.483Z,73
2016-12-23T13:32:33.489Z,73
2016-12-23T13:33:39.503Z,73
2016-12-23T13:34:45.531Z,73
2016-12-23T13:35:51.562Z,73
2016-12-23T13:36:57.580Z,73
2016-12-23T13:38:03.596Z,73
2016-12-23T13:39:09.621Z,73
2016-12-23T13:40:15.653Z,73
2016-12-23T13:41:21.668Z,73
2016-12-23T13:42:27.692Z,73
2016-12-23T13:43:33.720Z,73
2016-12-23T13:44:44.306Z,73
2016-12-23T13:45:50.151Z,73
2016-12-23T13:46:56.226Z,73
2016-12-23T13:48:02.269Z,73
2016-12-23T13:49:24.339Z,73
2016-12-23T13:50:29.607Z,73
2016-12-23T13:51:35.633Z,73
2016-12-23T13:52:42.083Z,73
2016-12-23T13:53:48.138Z,73
2016-12-23T13:54:54.215Z,73
2016-12-23T13:56:00.804Z,73
2016-12-23T13:57:05.893Z,73
2016-12-23T13:58:11.787Z,73
2016-12-23T13:59:17.839Z,73
2016-12-23T14:00:23.865Z,73
2016-12-23T14:01:29.900Z,73
2016-12-23T14:02:35.925Z,73
2016-12-23T14:03:41.922Z,73
2016-12-23T14:04:47.955Z,73
2016-12-23T14:05:54.030Z,73
2016-12-23T14:07:00.067Z,73
2016-12-23T14:08:06.064Z,73
2016-12-23T14:09:12.088Z,73
2016-12-23T14:10:18.104Z,73
2016-12-23T14:11:24.121Z,73
2016-12-23T14:12:30.149Z,73
2016-12-23T14:13:36.170Z,73
2016-12-23T14:14:42.190Z,73
2016-12-23T14:15:48.220Z,73
2016-12-23T14:16:54.239Z,73
2016-12-23T14:18:00.272Z,73
2016-12-23T14:19:06.292Z,73
2016-12-23T14:20:12.307Z,73
2016-12-23T14:21:18.333Z,73
2016-12-23T14:22:24.354Z,73
2016-12-23T14:23:30.369Z,73
2016-12-23T14:24:36.410Z,73
2016-12-23T14:25:42.433Z,73
2016-12-23T14:26:48.464Z,73
2016-12-23T14:27:54.473Z,73
2016-12-23T14:29:00.531Z,73
2016-12-23T14:30:06.542Z,73
2016-12-23T14:31:12.565Z,73
2016-12-23T14:32:18.579Z,73
2016-12-23T14:33:24.902Z,74
2016-12-23T14:34:30.925Z,73
2016-12-23T14:35:36.955Z,73
2016-12-23T14:36:43.007Z,74
2016-12-23T14:37:49.009Z,74
2016-12-23T14:38:55.066Z,74
2016-12-23T14:40:01.102Z,74
2016-12-23T14:41:07.125Z,74
2016-12-23T14:42:13.146Z,74
2016-12-23T14:43:19.171Z,74
2016-12-23T14:44:25.200Z,74
2016-12-23T14:45:31.224Z,74
2016-12-23T14:46:37.248Z,74
2016-12-23T14:47:43.273Z,74
2016-12-23T14:48:49.403Z,74
2016-12-23T14:49:55.321Z,74
2016-12-23T14:51:01.349Z,74
2016-12-23T14:52:07.370Z,74
2016-12-23T14:53:13.388Z,74
2016-12-23T14:54:19.422Z,74
2016-12-23T14:55:25.430Z,74
2016-12-23T14:56:31.455Z,74
2016-12-23T14:57:37.483Z,74
2016-12-23T14:58:43.529Z,74
2016-12-23T14:59:49.548Z,74
2016-12-23T15:00:55.581Z,75
2016-12-23T15:02:01.605Z,75
2016-12-23T15:03:07.625Z,75
2016-12-23T15:04:13.649Z,75
2016-12-23T15:05:19.667Z,75
2016-12-23T15:06:25.697Z,75
2016-12-23T15:07:31.719Z,75
2016-12-23T15:08:37.742Z,75
2016-12-23T15:09:43.753Z,75
2016-12-23T15:10:49.777Z,75
2016-12-23T15:11:55.800Z,75
2016-12-23T15:13:01.842Z,75
2016-12-23T15:14:07.852Z,75
2016-12-23T15:15:13.936Z,75
2016-12-23T15:16:19.903Z,75
2016-12-23T15:17:25.923Z,75
2016-12-23T15:18:31.939Z,75
2016-12-23T15:19:37.965Z,75
2016-12-23T15:20:43.991Z,75
2016-12-23T15:21:50.016Z,75
2016-12-23T15:22:56.032Z,75
2016-12-23T15:24:02.051Z,75
2016-12-23T15:25:08.092Z,75
2016-12-23T15:26:14.107Z,75
2016-12-23T15:27:20.135Z,75
2016-12-23T15:28:26.161Z,75
2016-12-23T15:29:32.182Z,75
2016-12-23T15:30:38.199Z,75
2016-12-23T15:31:44.229Z,75
2016-12-23T15:32:50.250Z,75
2016-12-23T15:33:56.272Z,75
2016-12-23T15:35:02.305Z,75
2016-12-23T15:36:08.314Z,75
2016-12-23T15:37:14.341Z,76
2016-12-23T15:38:20.367Z,76
2016-12-23T15:39:26.378Z,76
2016-12-23T15:40:32.406Z,76
2016-12-23T15:41:38.432Z,76